sensor_id;sensor_type;location;lat;lon;timestamp;pressure;altitude;pressure_sealevel;temperature;humidity
7824;BME280;3957;48.61947800;9.05303100;2023-04-27T00:00:20;96119.00;;;5.62;92.68
7824;BME280;3957;48.61947800;9.05303100;2023-04-27T00:01:21;96117.56;;;5.59;92.68
7824;BME280;3957;48.61947800;9.05303100;2023-04-27T00:02:23;96118.19;;;5.61;92.21
7824;BME280;3957;48.61947800;9.05303100;2023-04-27T00:03:25;96117.19;;;5.62;91.53
7824;BME280;3957;48.61947800;9.05303100;2023-04-27T00:04:27;96115.53;;;5.61;91.33
7824;BME280;3957;48.61947800;9.05303100;2023-04-27T00:05:29;96113.88;;;5.60;90.60
7824;BME280;3957;48.61947800;9.05303100;2023-04-27T00:06:31;96114.91;;;5.59;91.11
7824;BME280;3957;48.61947800;9.05303100;2023-04-27T00:07:33;96112.25;;;5.59;93.39
7824;BME280;3957;48.61947800;9.05303100;2023-04-27T00:08:34;96113.06;;;5.60;95.78
7824;BME280;3957;48.61947800;9.05303100;2023-04-27T00:09:36;96107.13;;;5.58;96.73
7824;BME280;3957;48.61947800;9.05303100;2023-04-27T00:10:37;96109.91;;;5.56;97.05
7824;BME280;3957;48.61947800;9.05303100;2023-04-27T00:11:39;96108.44;;;5.54;97.37
7824;BME280;3957;48.61947800;9.05303100;2023-04-27T00:12:40;96113.91;;;5.52;98.68
7824;BME280;3957;48.61947800;9.05303100;2023-04-27T00:13:43;96109.78;;;5.50;99.31
7824;BME280;3957;48.61947800;9.05303100;2023-04-27T00:14:44;96112.78;;;5.47;98.83
7824;BME280;3957;48.61947800;9.05303100;2023-04-27T00:15:46;96108.94;;;5.49;96.87
7824;BME280;3957;48.61947800;9.05303100;2023-04-27T00:16:47;96112.78;;;5.47;94.88
7824;BME280;3957;48.61947800;9.05303100;2023-04-27T00:17:49;96113.44;;;5.49;95.10
7824;BME280;3957;48.61947800;9.05303100;2023-04-27T00:18:50;96106.28;;;5.49;92.84
7824;BME280;3957;48.61947800;9.05303100;2023-04-27T00:19:52;96108.59;;;5.52;92.59
7824;BME280;3957;48.61947800;9.05303100;2023-04-27T00:20:54;96108.78;;;5.51;93.60
7824;BME280;3957;48.61947800;9.05303100;2023-04-27T00:21:56;96109.78;;;5.50;94.19
7824;BME280;3957;48.61947800;9.05303100;2023-04-27T00:23:00;96106.47;;;5.48;95.05
7824;BME280;3957;48.61947800;9.05303100;2023-04-27T00:24:01;96106.66;;;5.46;95.09
7824;BME280;3957;48.61947800;9.05303100;2023-04-27T00:25:04;96109.66;;;5.43;94.83
7824;BME280;3957;48.61947800;9.05303100;2023-04-27T00:26:06;96111.44;;;5.42;95.29
7824;BME280;3957;48.61947800;9.05303100;2023-04-27T00:27:07;96104.84;;;5.38;95.85
7824;BME280;3957;48.61947800;9.05303100;2023-04-27T00:28:09;96110.31;;;5.37;95.96
7824;BME280;3957;48.61947800;9.05303100;2023-04-27T00:29:10;96112.50;;;5.33;95.18
7824;BME280;3957;48.61947800;9.05303100;2023-04-27T00:30:12;96111.47;;;5.34;96.00
7824;BME280;3957;48.61947800;9.05303100;2023-04-27T00:31:14;96108.19;;;5.32;97.01
7824;BME280;3957;48.61947800;9.05303100;2023-04-27T00:32:16;96106.34;;;5.33;97.65
7824;BME280;3957;48.61947800;9.05303100;2023-04-27T00:33:17;96103.88;;;5.31;98.33
7824;BME280;3957;48.61947800;9.05303100;2023-04-27T00:34:21;96111.00;;;5.31;97.99
7824;BME280;3957;48.61947800;9.05303100;2023-04-27T00:35:22;96104.84;;;5.30;97.56
7824;BME280;3957;48.61947800;9.05303100;2023-04-27T00:36:24;96105.03;;;5.28;95.63
7824;BME280;3957;48.61947800;9.05303100;2023-04-27T00:37:27;96100.75;;;5.27;94.97
7824;BME280;3957;48.61947800;9.05303100;2023-04-27T00:38:29;96102.22;;;5.30;92.94
7824;BME280;3957;48.61947800;9.05303100;2023-04-27T00:39:33;96094.25;;;5.30;93.06
7824;BME280;3957;48.61947800;9.05303100;2023-04-27T00:40:35;96101.38;;;5.30;93.18
7824;BME280;3957;48.61947800;9.05303100;2023-04-27T00:41:37;96096.25;;;5.28;93.42
7824;BME280;3957;48.61947800;9.05303100;2023-04-27T00:42:42;96103.22;;;5.29;93.56
7824;BME280;3957;48.61947800;9.05303100;2023-04-27T00:43:45;96093.59;;;5.28;93.10
7824;BME280;3957;48.61947800;9.05303100;2023-04-27T00:44:46;96099.72;;;5.28;92.52
7824;BME280;3957;48.61947800;9.05303100;2023-04-27T00:45:48;96090.13;;;5.27;91.92
7824;BME280;3957;48.61947800;9.05303100;2023-04-27T00:46:50;96098.09;;;5.27;92.16
7824;BME280;3957;48.61947800;9.05303100;2023-04-27T00:47:51;96097.25;;;5.27;92.23
7824;BME280;3957;48.61947800;9.05303100;2023-04-27T00:48:54;96096.44;;;5.26;91.71
7824;BME280;3957;48.61947800;9.05303100;2023-04-27T00:49:56;96100.75;;;5.27;92.61
7824;BME280;3957;48.61947800;9.05303100;2023-04-27T00:50:59;96092.13;;;5.25;92.45
7824;BME280;3957;48.61947800;9.05303100;2023-04-27T00:52:01;96094.13;;;5.23;92.72
7824;BME280;3957;48.61947800;9.05303100;2023-04-27T00:53:04;96087.78;;;5.24;92.90
7824;BME280;3957;48.61947800;9.05303100;2023-04-27T00:54:07;96088.16;;;5.21;92.07
7824;BME280;3957;48.61947800;9.05303100;2023-04-27T00:55:09;96082.03;;;5.21;92.54
7824;BME280;3957;48.61947800;9.05303100;2023-04-27T00:56:13;96082.03;;;5.21;94.17
7824;BME280;3957;48.61947800;9.05303100;2023-04-27T00:57:15;96076.03;;;5.19;95.29
7824;BME280;3957;48.61947800;9.05303100;2023-04-27T00:58:17;96079.53;;;5.19;96.40
7824;BME280;3957;48.61947800;9.05303100;2023-04-27T00:59:19;96077.88;;;5.18;97.04
7824;BME280;3957;48.61947800;9.05303100;2023-04-27T01:00:21;96077.88;;;5.18;97.76
7824;BME280;3957;48.61947800;9.05303100;2023-04-27T01:01:22;96069.94;;;5.18;98.21
7824;BME280;3957;48.61947800;9.05303100;2023-04-27T01:02:24;96073.75;;;5.16;98.39
7824;BME280;3957;48.61947800;9.05303100;2023-04-27T01:03:27;96073.75;;;5.16;98.55
7824;BME280;3957;48.61947800;9.05303100;2023-04-27T01:04:29;96081.53;;;5.17;97.99
7824;BME280;3957;48.61947800;9.05303100;2023-04-27T01:05:33;96076.22;;;5.17;97.05
7824;BME280;3957;48.61947800;9.05303100;2023-04-27T01:06:35;96077.38;;;5.15;96.37
7824;BME280;3957;48.61947800;9.05303100;2023-04-27T01:07:38;96075.91;;;5.12;95.64
7824;BME280;3957;48.61947800;9.05303100;2023-04-27T01:08:39;96077.72;;;5.11;95.00
7824;BME280;3957;48.61947800;9.05303100;2023-04-27T01:09:41;96080.56;;;5.10;95.16
7824;BME280;3957;48.61947800;9.05303100;2023-04-27T01:10:43;96083.38;;;5.08;95.58
7824;BME280;3957;48.61947800;9.05303100;2023-04-27T01:11:45;96089.69;;;5.07;96.00
7824;BME280;3957;48.61947800;9.05303100;2023-04-27T01:12:47;96086.03;;;5.08;96.19
7824;BME280;3957;48.61947800;9.05303100;2023-04-27T01:13:49;96084.19;;;5.09;96.78
7824;BME280;3957;48.61947800;9.05303100;2023-04-27T01:14:51;96084.03;;;5.10;97.82
7824;BME280;3957;48.61947800;9.05303100;2023-04-27T01:15:52;96084.69;;;5.13;98.92
7824;BME280;3957;48.61947800;9.05303100;2023-04-27T01:16:54;96082.03;;;5.13;99.34
7824;BME280;3957;48.61947800;9.05303100;2023-04-27T01:17:59;96093.47;;;5.13;99.58
7824;BME280;3957;48.61947800;9.05303100;2023-04-27T01:19:02;96085.50;;;5.13;100.00
7824;BME280;3957;48.61947800;9.05303100;2023-04-27T01:20:05;96091.81;;;5.12;100.00
7824;BME280;3957;48.61947800;9.05303100;2023-04-27T01:21:09;96091.97;;;5.10;100.00
7824;BME280;3957;48.61947800;9.05303100;2023-04-27T01:22:11;96090.31;;;5.09;100.00
7824;BME280;3957;48.61947800;9.05303100;2023-04-27T01:23:15;96091.50;;;5.07;100.00
7824;BME280;3957;48.61947800;9.05303100;2023-04-27T01:24:18;96094.16;;;5.07;100.00
7824;BME280;3957;48.61947800;9.05303100;2023-04-27T01:25:19;96094.66;;;5.02;100.00
7824;BME280;3957;48.61947800;9.05303100;2023-04-27T01:26:21;96095.63;;;5.01;100.00
7824;BME280;3957;48.61947800;9.05303100;2023-04-27T01:27:23;96093.16;;;5.00;100.00
7824;BME280;3957;48.61947800;9.05303100;2023-04-27T01:28:24;96097.66;;;4.99;100.00
7824;BME280;3957;48.61947800;9.05303100;2023-04-27T01:29:26;96100.28;;;4.99;100.00
7824;BME280;3957;48.61947800;9.05303100;2023-04-27T01:30:27;96097.81;;;4.98;100.00
7824;BME280;3957;48.61947800;9.05303100;2023-04-27T01:31:32;96098.00;;;4.96;100.00
7824;BME280;3957;48.61947800;9.05303100;2023-04-27T01:32:36;96095.81;;;4.91;100.00
7824;BME280;3957;48.61947800;9.05303100;2023-04-27T01:33:38;96089.19;;;4.87;100.00
7824;BME280;3957;48.61947800;9.05303100;2023-04-27T01:34:40;96089.53;;;4.84;100.00
7824;BME280;3957;48.61947800;9.05303100;2023-04-27T01:35:41;96088.22;;;4.80;100.00
7824;BME280;3957;48.61947800;9.05303100;2023-04-27T01:36:43;96089.56;;;4.76;100.00
7824;BME280;3957;48.61947800;9.05303100;2023-04-27T01:37:45;96089.56;;;4.76;100.00
7824;BME280;3957;48.61947800;9.05303100;2023-04-27T01:38:46;96090.41;;;4.76;100.00
7824;BME280;3957;48.61947800;9.05303100;2023-04-27T01:39:48;96092.03;;;4.77;100.00
7824;BME280;3957;48.61947800;9.05303100;2023-04-27T01:40:49;96089.88;;;4.81;100.00
7824;BME280;3957;48.61947800;9.05303100;2023-04-27T01:41:53;96083.91;;;4.79;100.00
7824;BME280;3957;48.61947800;9.05303100;2023-04-27T01:42:58;96083.09;;;4.79;100.00
7824;BME280;3957;48.61947800;9.05303100;2023-04-27T01:44:01;96086.72;;;4.77;100.00
7824;BME280;3957;48.61947800;9.05303100;2023-04-27T01:45:04;96083.09;;;4.79;100.00
7824;BME280;3957;48.61947800;9.05303100;2023-04-27T01:47:08;96087.56;;;4.78;100.00
7824;BME280;3957;48.61947800;9.05303100;2023-04-27T01:48:09;96078.94;;;4.76;100.00
7824;BME280;3957;48.61947800;9.05303100;2023-04-27T01:49:11;96080.94;;;4.74;100.00
7824;BME280;3957;48.61947800;9.05303100;2023-04-27T01:50:13;96081.94;;;4.73;100.00
7824;BME280;3957;48.61947800;9.05303100;2023-04-27T01:51:15;96087.25;;;4.73;100.00
7824;BME280;3957;48.61947800;9.05303100;2023-04-27T01:52:18;96084.59;;;4.73;100.00
7824;BME280;3957;48.61947800;9.05303100;2023-04-27T01:53:20;96086.44;;;4.72;100.00
7824;BME280;3957;48.61947800;9.05303100;2023-04-27T01:54:22;96088.22;;;4.72;100.00
7824;BME280;3957;48.61947800;9.05303100;2023-04-27T01:55:23;96093.53;;;4.72;100.00
7824;BME280;3957;48.61947800;9.05303100;2023-04-27T01:56:25;96094.38;;;4.72;100.00
7824;BME280;3957;48.61947800;9.05303100;2023-04-27T01:57:28;96085.25;;;4.75;99.72
7824;BME280;3957;48.61947800;9.05303100;2023-04-27T01:58:30;96090.53;;;4.75;99.20
7824;BME280;3957;48.61947800;9.05303100;2023-04-27T01:59:31;96080.63;;;4.77;99.62
7824;BME280;3957;48.61947800;9.05303100;2023-04-27T02:00:33;96091.72;;;4.81;99.29
7824;BME280;3957;48.61947800;9.05303100;2023-04-27T02:01:34;96092.53;;;4.81;99.19
7824;BME280;3957;48.61947800;9.05303100;2023-04-27T02:02:36;96090.53;;;4.83;99.24
7824;BME280;3957;48.61947800;9.05303100;2023-04-27T02:03:40;96091.22;;;4.85;100.00
7824;BME280;3957;48.61947800;9.05303100;2023-04-27T02:04:42;96086.72;;;4.86;100.00
7824;BME280;3957;48.61947800;9.05303100;2023-04-27T02:05:46;96090.03;;;4.88;100.00
7824;BME280;3957;48.61947800;9.05303100;2023-04-27T02:06:48;96093.84;;;4.85;100.00
7824;BME280;3957;48.61947800;9.05303100;2023-04-27T02:07:49;96092.88;;;4.86;100.00
7824;BME280;3957;48.61947800;9.05303100;2023-04-27T02:08:51;96093.69;;;4.87;100.00
7824;BME280;3957;48.61947800;9.05303100;2023-04-27T02:09:52;96091.38;;;4.84;100.00
7824;BME280;3957;48.61947800;9.05303100;2023-04-27T02:10:54;96091.22;;;4.85;100.00
7824;BME280;3957;48.61947800;9.05303100;2023-04-27T02:11:57;96094.38;;;4.89;100.00
7824;BME280;3957;48.61947800;9.05303100;2023-04-27T02:12:59;96099.16;;;4.93;100.00
7824;BME280;3957;48.61947800;9.05303100;2023-04-27T02:14:01;96103.59;;;5.01;97.54
7824;BME280;3957;48.61947800;9.05303100;2023-04-27T02:15:06;96101.97;;;5.00;97.63
7824;BME280;3957;48.61947800;9.05303100;2023-04-27T02:16:07;96100.13;;;5.01;98.01
7824;BME280;3957;48.61947800;9.05303100;2023-04-27T02:17:09;96095.00;;;4.99;98.27
7824;BME280;3957;48.61947800;9.05303100;2023-04-27T02:18:11;96097.47;;;5.01;98.05
7824;BME280;3957;48.61947800;9.05303100;2023-04-27T02:19:12;96098.47;;;5.00;98.88
7824;BME280;3957;48.61947800;9.05303100;2023-04-27T02:20:14;96098.28;;;5.01;99.60
7824;BME280;3957;48.61947800;9.05303100;2023-04-27T02:21:16;96099.31;;;5.00;100.00
7824;BME280;3957;48.61947800;9.05303100;2023-04-27T02:22:17;96106.41;;;5.00;100.00
7824;BME280;3957;48.61947800;9.05303100;2023-04-27T02:23:19;96100.47;;;4.98;100.00
7824;BME280;3957;48.61947800;9.05303100;2023-04-27T02:24:21;96106.41;;;5.00;100.00
7824;BME280;3957;48.61947800;9.05303100;2023-04-27T02:25:22;96103.28;;;4.96;100.00
7824;BME280;3957;48.61947800;9.05303100;2023-04-27T02:26:24;96099.63;;;4.97;100.00
7824;BME280;3957;48.61947800;9.05303100;2023-04-27T02:27:31;96113.91;;;4.96;100.00
7824;BME280;3957;48.61947800;9.05303100;2023-04-27T02:28:33;96098.97;;;4.95;100.00
7824;BME280;3957;48.61947800;9.05303100;2023-04-27T02:29:35;96103.63;;;4.93;100.00
7824;BME280;3957;48.61947800;9.05303100;2023-04-27T02:30:39;96104.78;;;4.90;100.00
7824;BME280;3957;48.61947800;9.05303100;2023-04-27T02:31:41;96102.16;;;4.90;100.00
7824;BME280;3957;48.61947800;9.05303100;2023-04-27T02:32:43;96100.31;;;4.91;100.00
7824;BME280;3957;48.61947800;9.05303100;2023-04-27T02:33:44;96106.44;;;4.91;100.00
7824;BME280;3957;48.61947800;9.05303100;2023-04-27T02:34:46;96101.28;;;4.90;100.00
7824;BME280;3957;48.61947800;9.05303100;2023-04-27T02:35:48;96097.16;;;4.87;100.00
7824;BME280;3957;48.61947800;9.05303100;2023-04-27T02:36:50;96104.47;;;4.85;100.00
7824;BME280;3957;48.61947800;9.05303100;2023-04-27T02:37:52;96103.13;;;4.81;100.00
7824;BME280;3957;48.61947800;9.05303100;2023-04-27T02:38:53;96102.16;;;4.82;100.00
7824;BME280;3957;48.61947800;9.05303100;2023-04-27T02:39:55;96103.13;;;4.81;100.00
7824;BME280;3957;48.61947800;9.05303100;2023-04-27T02:40:56;96101.47;;;4.80;100.00
7824;BME280;3957;48.61947800;9.05303100;2023-04-27T02:41:58;96107.13;;;4.77;100.00
7824;BME280;3957;48.61947800;9.05303100;2023-04-27T02:42:59;96105.47;;;4.76;100.00
7824;BME280;3957;48.61947800;9.05303100;2023-04-27T02:44:01;96100.84;;;4.78;100.00
7824;BME280;3957;48.61947800;9.05303100;2023-04-27T02:45:05;96114.25;;;4.76;100.00
7824;BME280;3957;48.61947800;9.05303100;2023-04-27T02:46:07;96111.44;;;4.78;100.00
7824;BME280;3957;48.61947800;9.05303100;2023-04-27T02:47:09;96111.91;;;4.82;100.00
7824;BME280;3957;48.61947800;9.05303100;2023-04-27T02:48:11;96114.09;;;4.78;100.00
7824;BME280;3957;48.61947800;9.05303100;2023-04-27T02:49:14;96115.25;;;4.75;100.00
7824;BME280;3957;48.61947800;9.05303100;2023-04-27T02:50:17;96110.75;;;4.76;100.00
7824;BME280;3957;48.61947800;9.05303100;2023-04-27T02:51:18;96106.44;;;4.75;100.00
7824;BME280;3957;48.61947800;9.05303100;2023-04-27T02:52:20;96105.47;;;4.76;100.00
7824;BME280;3957;48.61947800;9.05303100;2023-04-27T02:53:22;96110.75;;;4.76;100.00
7824;BME280;3957;48.61947800;9.05303100;2023-04-27T02:54:23;96111.44;;;4.78;100.00
7824;BME280;3957;48.61947800;9.05303100;2023-04-27T02:55:25;96104.63;;;4.75;100.00
7824;BME280;3957;48.61947800;9.05303100;2023-04-27T02:56:27;96109.78;;;4.77;100.00
7824;BME280;3957;48.61947800;9.05303100;2023-04-27T02:57:29;96114.41;;;4.75;100.00
7824;BME280;3957;48.61947800;9.05303100;2023-04-27T02:58:31;96118.06;;;4.74;100.00
7824;BME280;3957;48.61947800;9.05303100;2023-04-27T02:59:32;96109.44;;;4.72;100.00
7824;BME280;3957;48.61947800;9.05303100;2023-04-27T03:00:34;96112.75;;;4.66;100.00
7824;BME280;3957;48.61947800;9.05303100;2023-04-27T03:01:36;96112.25;;;4.62;100.00
7824;BME280;3957;48.61947800;9.05303100;2023-04-27T03:02:37;96109.78;;;4.60;100.00
7824;BME280;3957;48.61947800;9.05303100;2023-04-27T03:03:39;96116.75;;;4.62;100.00
7824;BME280;3957;48.61947800;9.05303100;2023-04-27T03:04:41;96109.59;;;4.62;100.00
7824;BME280;3957;48.61947800;9.05303100;2023-04-27T03:05:43;96109.28;;;4.65;100.00
7824;BME280;3957;48.61947800;9.05303100;2023-04-27T03:06:46;96111.91;;;4.65;100.00
7824;BME280;3957;48.61947800;9.05303100;2023-04-27T03:07:48;96110.28;;;4.64;100.00
7824;BME280;3957;48.61947800;9.05303100;2023-04-27T03:08:50;96112.25;;;4.62;100.00
7824;BME280;3957;48.61947800;9.05303100;2023-04-27T03:09:52;96108.63;;;4.63;100.00
7824;BME280;3957;48.61947800;9.05303100;2023-04-27T03:10:55;96112.44;;;4.60;100.00
7824;BME280;3957;48.61947800;9.05303100;2023-04-27T03:11:56;96110.94;;;4.58;100.00
7824;BME280;3957;48.61947800;9.05303100;2023-04-27T03:12:58;96114.25;;;4.60;100.00
7824;BME280;3957;48.61947800;9.05303100;2023-04-27T03:14:02;96114.91;;;4.62;100.00
7824;BME280;3957;48.61947800;9.05303100;2023-04-27T03:15:04;96112.09;;;4.64;100.00
7824;BME280;3957;48.61947800;9.05303100;2023-04-27T03:16:09;96111.91;;;4.65;100.00
7824;BME280;3957;48.61947800;9.05303100;2023-04-27T03:17:12;96104.97;;;4.64;100.00
7824;BME280;3957;48.61947800;9.05303100;2023-04-27T03:18:14;96114.91;;;4.62;100.00
7824;BME280;3957;48.61947800;9.05303100;2023-04-27T03:19:15;96113.06;;;4.63;100.00
7824;BME280;3957;48.61947800;9.05303100;2023-04-27T03:20:17;96111.75;;;4.67;100.00
7824;BME280;3957;48.61947800;9.05303100;2023-04-27T03:21:19;96111.28;;;4.63;100.00
7824;BME280;3957;48.61947800;9.05303100;2023-04-27T03:22:22;96106.13;;;4.62;100.00
7824;BME280;3957;48.61947800;9.05303100;2023-04-27T03:23:24;96108.78;;;4.62;100.00
7824;BME280;3957;48.61947800;9.05303100;2023-04-27T03:24:25;96109.78;;;4.60;100.00
7824;BME280;3957;48.61947800;9.05303100;2023-04-27T03:25:28;96110.59;;;4.61;100.00
7824;BME280;3957;48.61947800;9.05303100;2023-04-27T03:26:29;96116.75;;;4.62;100.00
7824;BME280;3957;48.61947800;9.05303100;2023-04-27T03:27:31;96117.56;;;4.62;100.00
7824;BME280;3957;48.61947800;9.05303100;2023-04-27T03:28:33;96115.72;;;4.63;100.00
7824;BME280;3957;48.61947800;9.05303100;2023-04-27T03:29:35;96114.41;;;4.67;100.00
7824;BME280;3957;48.61947800;9.05303100;2023-04-27T03:30:38;96111.09;;;4.65;100.00
7824;BME280;3957;48.61947800;9.05303100;2023-04-27T03:31:41;96118.88;;;4.66;100.00
7824;BME280;3957;48.61947800;9.05303100;2023-04-27T03:32:43;96116.22;;;4.66;100.00
7824;BME280;3957;48.61947800;9.05303100;2023-04-27T03:33:47;96117.06;;;4.67;100.00
7824;BME280;3957;48.61947800;9.05303100;2023-04-27T03:34:49;96114.41;;;4.67;100.00
7824;BME280;3957;48.61947800;9.05303100;2023-04-27T03:35:58;96117.06;;;4.67;100.00
7824;BME280;3957;48.61947800;9.05303100;2023-04-27T03:37:00;96120.72;;;4.66;100.00
7824;BME280;3957;48.61947800;9.05303100;2023-04-27T03:38:02;96113.75;;;4.65;100.00
7824;BME280;3957;48.61947800;9.05303100;2023-04-27T03:39:05;96112.75;;;4.57;100.00
7824;BME280;3957;48.61947800;9.05303100;2023-04-27T03:40:08;96107.81;;;4.54;100.00
7824;BME280;3957;48.61947800;9.05303100;2023-04-27T03:41:10;96111.78;;;4.58;100.00
7824;BME280;3957;48.61947800;9.05303100;2023-04-27T03:42:11;96108.78;;;4.62;100.00
7824;BME280;3957;48.61947800;9.05303100;2023-04-27T03:43:13;96113.25;;;4.61;100.00
7824;BME280;3957;48.61947800;9.05303100;2023-04-27T03:44:15;96112.09;;;4.55;100.00
7824;BME280;3957;48.61947800;9.05303100;2023-04-27T03:45:16;96113.56;;;4.50;100.00
7824;BME280;3957;48.61947800;9.05303100;2023-04-27T03:46:19;96112.44;;;4.52;100.00
7824;BME280;3957;48.61947800;9.05303100;2023-04-27T03:47:21;96116.72;;;4.45;100.00
7824;BME280;3957;48.61947800;9.05303100;2023-04-27T03:48:23;96111.44;;;4.45;100.00
7824;BME280;3957;48.61947800;9.05303100;2023-04-27T03:49:27;96114.56;;;4.49;100.00
7824;BME280;3957;48.61947800;9.05303100;2023-04-27T03:50:29;96117.72;;;4.52;100.00
7824;BME280;3957;48.61947800;9.05303100;2023-04-27T03:51:31;96125.50;;;4.54;100.00
7824;BME280;3957;48.61947800;9.05303100;2023-04-27T03:52:33;96120.88;;;4.56;100.00
7824;BME280;3957;48.61947800;9.05303100;2023-04-27T03:53:37;96119.72;;;4.58;100.00
7824;BME280;3957;48.61947800;9.05303100;2023-04-27T03:54:40;96119.56;;;4.60;100.00
7824;BME280;3957;48.61947800;9.05303100;2023-04-27T03:55:43;96117.06;;;4.58;100.00
7824;BME280;3957;48.61947800;9.05303100;2023-04-27T03:56:45;96123.38;;;4.57;100.00
7824;BME280;3957;48.61947800;9.05303100;2023-04-27T03:57:48;96121.53;;;4.58;100.00
7824;BME280;3957;48.61947800;9.05303100;2023-04-27T03:58:50;96117.91;;;4.59;100.00
7824;BME280;3957;48.61947800;9.05303100;2023-04-27T03:59:54;96123.03;;;4.60;100.00
7824;BME280;3957;48.61947800;9.05303100;2023-04-27T04:00:55;96117.91;;;4.59;100.00
7824;BME280;3957;48.61947800;9.05303100;2023-04-27T04:01:57;96113.41;;;4.59;100.00
7824;BME280;3957;48.61947800;9.05303100;2023-04-27T04:03:02;96117.91;;;4.59;100.00
7824;BME280;3957;48.61947800;9.05303100;2023-04-27T04:04:04;96114.91;;;4.62;100.00
7824;BME280;3957;48.61947800;9.05303100;2023-04-27T04:05:06;96120.22;;;4.62;100.00
7824;BME280;3957;48.61947800;9.05303100;2023-04-27T04:06:09;96116.91;;;4.60;100.00
7824;BME280;3957;48.61947800;9.05303100;2023-04-27T04:07:11;96122.38;;;4.58;100.00
7824;BME280;3957;48.61947800;9.05303100;2023-04-27T04:08:13;96125.69;;;4.60;100.00
7824;BME280;3957;48.61947800;9.05303100;2023-04-27T04:09:15;96123.38;;;4.57;100.00
7824;BME280;3957;48.61947800;9.05303100;2023-04-27T04:10:17;96124.19;;;4.58;100.00
7824;BME280;3957;48.61947800;9.05303100;2023-04-27T04:11:21;96125.03;;;4.58;100.00
7824;BME280;3957;48.61947800;9.05303100;2023-04-27T04:12:26;96127.69;;;4.58;100.00
7824;BME280;3957;48.61947800;9.05303100;2023-04-27T04:13:28;96126.66;;;4.59;100.00
7824;BME280;3957;48.61947800;9.05303100;2023-04-27T04:14:31;96130.97;;;4.60;100.00
7824;BME280;3957;48.61947800;9.05303100;2023-04-27T04:15:33;96124.00;;;4.59;100.00
7824;BME280;3957;48.61947800;9.05303100;2023-04-27T04:16:36;96122.22;;;4.60;100.00
7824;BME280;3957;48.61947800;9.05303100;2023-04-27T04:17:38;96125.34;;;4.55;100.00
7824;BME280;3957;48.61947800;9.05303100;2023-04-27T04:18:39;96125.66;;;4.44;100.00
7824;BME280;3957;48.61947800;9.05303100;2023-04-27T04:19:41;96124.50;;;4.47;100.00
7824;BME280;3957;48.61947800;9.05303100;2023-04-27T04:20:43;96129.31;;;4.51;100.00
7824;BME280;3957;48.61947800;9.05303100;2023-04-27T04:21:44;96127.69;;;4.50;100.00
7824;BME280;3957;48.61947800;9.05303100;2023-04-27T04:22:47;96135.63;;;4.42;100.00
7824;BME280;3957;48.61947800;9.05303100;2023-04-27T04:23:48;96130.16;;;4.43;100.00
7824;BME280;3957;48.61947800;9.05303100;2023-04-27T04:24:52;96129.16;;;4.28;100.00
7824;BME280;3957;48.61947800;9.05303100;2023-04-27T04:25:54;96135.06;;;4.14;100.00
7824;BME280;3957;48.61947800;9.05303100;2023-04-27T04:27:02;96128.63;;;4.16;100.00
7824;BME280;3957;48.61947800;9.05303100;2023-04-27T04:28:04;96132.09;;;4.25;100.00
7824;BME280;3957;48.61947800;9.05303100;2023-04-27T04:29:06;96133.09;;;4.32;100.00
7824;BME280;3957;48.61947800;9.05303100;2023-04-27T04:30:11;96143.22;;;4.37;100.00
7824;BME280;3957;48.61947800;9.05303100;2023-04-27T04:31:13;96139.88;;;4.35;100.00
7824;BME280;3957;48.61947800;9.05303100;2023-04-27T04:32:18;96137.06;;;4.36;100.00
7824;BME280;3957;48.61947800;9.05303100;2023-04-27T04:33:20;96133.78;;;4.42;100.00
7824;BME280;3957;48.61947800;9.05303100;2023-04-27T04:34:22;96136.25;;;4.44;100.00
7824;BME280;3957;48.61947800;9.05303100;2023-04-27T04:35:24;96135.44;;;4.43;100.00
7824;BME280;3957;48.61947800;9.05303100;2023-04-27T04:36:26;96134.44;;;4.45;100.00
7824;BME280;3957;48.61947800;9.05303100;2023-04-27T04:37:31;96132.63;;;4.45;100.00
7824;BME280;3957;48.61947800;9.05303100;2023-04-27T04:38:32;96131.47;;;4.48;100.00
7824;BME280;3957;48.61947800;9.05303100;2023-04-27T04:39:34;96137.25;;;4.51;100.00
7824;BME280;3957;48.61947800;9.05303100;2023-04-27T04:40:39;96137.59;;;4.56;100.00
7824;BME280;3957;48.61947800;9.05303100;2023-04-27T04:41:43;96140.59;;;4.62;100.00
7824;BME280;3957;48.61947800;9.05303100;2023-04-27T04:42:46;96135.78;;;4.65;100.00
7824;BME280;3957;48.61947800;9.05303100;2023-04-27T04:43:47;96135.59;;;4.67;100.00
7824;BME280;3957;48.61947800;9.05303100;2023-04-27T04:44:50;96142.56;;;4.59;100.00
7824;BME280;3957;48.61947800;9.05303100;2023-04-27T04:45:52;96136.09;;;4.46;100.00
7824;BME280;3957;48.61947800;9.05303100;2023-04-27T04:46:54;96140.59;;;4.53;100.00
7824;BME280;3957;48.61947800;9.05303100;2023-04-27T04:47:59;96140.25;;;4.56;100.00
7824;BME280;3957;48.61947800;9.05303100;2023-04-27T04:49:02;96144.41;;;4.67;100.00
7824;BME280;3957;48.61947800;9.05303100;2023-04-27T04:50:03;96147.41;;;4.72;100.00
7824;BME280;3957;48.61947800;9.05303100;2023-04-27T04:51:05;96143.72;;;4.73;100.00
7824;BME280;3957;48.61947800;9.05303100;2023-04-27T04:52:08;96140.59;;;4.78;100.00
7824;BME280;3957;48.61947800;9.05303100;2023-04-27T04:53:10;96143.41;;;4.76;100.00
7824;BME280;3957;48.61947800;9.05303100;2023-04-27T04:54:11;96144.56;;;4.74;100.00
7824;BME280;3957;48.61947800;9.05303100;2023-04-27T04:55:13;96138.25;;;4.67;100.00
7824;BME280;3957;48.61947800;9.05303100;2023-04-27T04:56:14;96137.94;;;4.70;100.00
7824;BME280;3957;48.61947800;9.05303100;2023-04-27T04:57:17;96141.59;;;4.69;100.00
7824;BME280;3957;48.61947800;9.05303100;2023-04-27T04:58:19;96138.13;;;4.76;100.00
7824;BME280;3957;48.61947800;9.05303100;2023-04-27T04:59:21;96139.56;;;4.87;100.00